sensor_id;sensor_type;location;lat;lon;timestamp;P1;durP1;ratioP1;P2;durP2;ratioP2
2053;SDS011;1032;52.542;13.440;2023-08-17T00:01:04;4.40;;;2.97;;
2053;SDS011;1032;52.542;13.440;2023-08-17T00:03:31;7.73;;;3.40;;
2053;SDS011;1032;52.542;13.440;2023-08-17T00:05:57;5.33;;;3.57;;
2053;SDS011;1032;52.542;13.440;2023-08-17T00:08:24;5.40;;;3.03;;
2053;SDS011;1032;52.542;13.440;2023-08-17T00:10:50;4.20;;;3.13;;
2053;SDS011;1032;52.542;13.440;2023-08-17T00:13:17;6.60;;;3.60;;
2053;SDS011;1032;52.542;13.440;2023-08-17T00:15:44;5.30;;;2.70;;
2053;SDS011;1032;52.542;13.440;2023-08-17T00:18:12;6.03;;;3.30;;
2053;SDS011;1032;52.542;13.440;2023-08-17T00:20:38;4.97;;;2.90;;
2053;SDS011;1032;52.542;13.440;2023-08-17T00:23:05;4.43;;;2.90;;
2053;SDS011;1032;52.542;13.440;2023-08-17T00:25:31;4.70;;;3.23;;
2053;SDS011;1032;52.542;13.440;2023-08-17T00:27:58;5.10;;;3.20;;
2053;SDS011;1032;52.542;13.440;2023-08-17T00:30:25;8.10;;;3.10;;
2053;SDS011;1032;52.542;13.440;2023-08-17T00:32:51;8.30;;;3.20;;
2053;SDS011;1032;52.542;13.440;2023-08-17T00:35:19;3.47;;;2.80;;
2053;SDS011;1032;52.542;13.440;2023-08-17T00:37:46;4.70;;;3.13;;
2053;SDS011;1032;52.542;13.440;2023-08-17T00:40:12;6.00;;;3.30;;
2053;SDS011;1032;52.542;13.440;2023-08-17T00:42:39;3.50;;;3.00;;
2053;SDS011;1032;52.542;13.440;2023-08-17T00:45:06;4.00;;;3.13;;
2053;SDS011;1032;52.542;13.440;2023-08-17T00:47:33;3.27;;;2.80;;
2053;SDS011;1032;52.542;13.440;2023-08-17T00:50:00;7.43;;;3.90;;
2053;SDS011;1032;52.542;13.440;2023-08-17T00:52:29;7.20;;;3.27;;
2053;SDS011;1032;52.542;13.440;2023-08-17T00:54:58;5.40;;;3.60;;
2053;SDS011;1032;52.542;13.440;2023-08-17T00:57:26;5.20;;;3.33;;
2053;SDS011;1032;52.542;13.440;2023-08-17T00:59:54;7.70;;;3.80;;
2053;SDS011;1032;52.542;13.440;2023-08-17T01:02:21;7.00;;;3.40;;
2053;SDS011;1032;52.542;13.440;2023-08-17T01:04:47;5.33;;;3.00;;
2053;SDS011;1032;52.542;13.440;2023-08-17T01:07:14;7.50;;;3.43;;
2053;SDS011;1032;52.542;13.440;2023-08-17T01:09:42;4.40;;;3.03;;
2053;SDS011;1032;52.542;13.440;2023-08-17T01:12:13;5.10;;;3.40;;
2053;SDS011;1032;52.542;13.440;2023-08-17T01:14:48;9.97;;;3.70;;
2053;SDS011;1032;52.542;13.440;2023-08-17T01:17:22;4.60;;;3.53;;
2053;SDS011;1032;52.542;13.440;2023-08-17T01:19:52;7.70;;;3.37;;
2053;SDS011;1032;52.542;13.440;2023-08-17T01:22:21;4.23;;;3.57;;
2053;SDS011;1032;52.542;13.440;2023-08-17T01:24:49;7.33;;;3.47;;
2053;SDS011;1032;52.542;13.440;2023-08-17T01:27:22;4.70;;;3.77;;
2053;SDS011;1032;52.542;13.440;2023-08-17T01:29:48;7.93;;;3.97;;
2053;SDS011;1032;52.542;13.440;2023-08-17T01:32:16;6.23;;;3.20;;
2053;SDS011;1032;52.542;13.440;2023-08-17T01:34:54;5.90;;;3.30;;
2053;SDS011;1032;52.542;13.440;2023-08-17T01:37:25;5.23;;;3.63;;
2053;SDS011;1032;52.542;13.440;2023-08-17T01:39:56;3.87;;;3.40;;
2053;SDS011;1032;52.542;13.440;2023-08-17T01:42:23;3.80;;;3.33;;
2053;SDS011;1032;52.542;13.440;2023-08-17T01:44:53;4.60;;;3.40;;
2053;SDS011;1032;52.542;13.440;2023-08-17T01:47:20;4.67;;;3.37;;
2053;SDS011;1032;52.542;13.440;2023-08-17T01:49:47;7.30;;;3.40;;
2053;SDS011;1032;52.542;13.440;2023-08-17T01:52:14;7.23;;;3.33;;
2053;SDS011;1032;52.542;13.440;2023-08-17T01:54:41;6.10;;;3.43;;
2053;SDS011;1032;52.542;13.440;2023-08-17T01:57:09;7.50;;;3.07;;
2053;SDS011;1032;52.542;13.440;2023-08-17T01:59:35;5.43;;;3.03;;
2053;SDS011;1032;52.542;13.440;2023-08-17T02:02:02;4.43;;;3.00;;
2053;SDS011;1032;52.542;13.440;2023-08-17T02:04:29;3.80;;;3.30;;
2053;SDS011;1032;52.542;13.440;2023-08-17T02:06:56;4.80;;;3.77;;
2053;SDS011;1032;52.542;13.440;2023-08-17T02:09:22;6.37;;;3.90;;
2053;SDS011;1032;52.542;13.440;2023-08-17T02:11:49;6.63;;;3.00;;
2053;SDS011;1032;52.542;13.440;2023-08-17T02:14:17;4.67;;;3.70;;
2053;SDS011;1032;52.542;13.440;2023-08-17T02:16:43;5.07;;;3.60;;
2053;SDS011;1032;52.542;13.440;2023-08-17T02:19:10;5.97;;;3.23;;
2053;SDS011;1032;52.542;13.440;2023-08-17T02:21:37;5.73;;;3.70;;
2053;SDS011;1032;52.542;13.440;2023-08-17T02:24:04;11.00;;;3.60;;
2053;SDS011;1032;52.542;13.440;2023-08-17T02:26:31;6.17;;;3.63;;
2053;SDS011;1032;52.542;13.440;2023-08-17T02:28:57;4.90;;;3.67;;
2053;SDS011;1032;52.542;13.440;2023-08-17T02:31:25;6.70;;;3.60;;
2053;SDS011;1032;52.542;13.440;2023-08-17T02:33:55;5.77;;;3.77;;
2053;SDS011;1032;52.542;13.440;2023-08-17T02:36:25;4.70;;;3.10;;
2053;SDS011;1032;52.542;13.440;2023-08-17T02:38:52;6.77;;;3.57;;
2053;SDS011;1032;52.542;13.440;2023-08-17T02:41:19;9.40;;;3.70;;
2053;SDS011;1032;52.542;13.440;2023-08-17T02:43:47;5.87;;;3.93;;
2053;SDS011;1032;52.542;13.440;2023-08-17T02:46:14;4.53;;;3.00;;
2053;SDS011;1032;52.542;13.440;2023-08-17T02:48:42;7.73;;;3.77;;
2053;SDS011;1032;52.542;13.440;2023-08-17T02:51:09;4.53;;;3.37;;
2053;SDS011;1032;52.542;13.440;2023-08-17T02:53:35;6.30;;;3.60;;
2053;SDS011;1032;52.542;13.440;2023-08-17T02:56:02;6.40;;;3.13;;
2053;SDS011;1032;52.542;13.440;2023-08-17T02:58:29;6.30;;;3.60;;
2053;SDS011;1032;52.542;13.440;2023-08-17T03:00:55;4.50;;;3.13;;
2053;SDS011;1032;52.542;13.440;2023-08-17T03:03:22;4.63;;;3.13;;
2053;SDS011;1032;52.542;13.440;2023-08-17T03:05:50;7.73;;;3.70;;
2053;SDS011;1032;52.542;13.440;2023-08-17T03:08:16;5.00;;;3.13;;
2053;SDS011;1032;52.542;13.440;2023-08-17T03:10:43;4.57;;;2.93;;
2053;SDS011;1032;52.542;13.440;2023-08-17T03:13:10;5.73;;;3.13;;
2053;SDS011;1032;52.542;13.440;2023-08-17T03:15:36;4.67;;;3.10;;
2053;SDS011;1032;52.542;13.440;2023-08-17T03:18:05;5.30;;;3.30;;
2053;SDS011;1032;52.542;13.440;2023-08-17T03:20:31;7.63;;;3.07;;
2053;SDS011;1032;52.542;13.440;2023-08-17T03:22:59;5.37;;;3.47;;
2053;SDS011;1032;52.542;13.440;2023-08-17T03:25:26;4.07;;;2.93;;
2053;SDS011;1032;52.542;13.440;2023-08-17T03:27:53;4.90;;;2.80;;
2053;SDS011;1032;52.542;13.440;2023-08-17T03:30:20;5.43;;;2.53;;
2053;SDS011;1032;52.542;13.440;2023-08-17T03:32:47;6.60;;;2.63;;
2053;SDS011;1032;52.542;13.440;2023-08-17T03:35:14;7.10;;;3.70;;
2053;SDS011;1032;52.542;13.440;2023-08-17T03:37:40;5.40;;;3.17;;
2053;SDS011;1032;52.542;13.440;2023-08-17T03:40:10;5.23;;;2.80;;
2053;SDS011;1032;52.542;13.440;2023-08-17T03:42:37;5.30;;;3.27;;
2053;SDS011;1032;52.542;13.440;2023-08-17T03:45:04;4.47;;;3.30;;
2053;SDS011;1032;52.542;13.440;2023-08-17T03:47:32;3.63;;;2.90;;
2053;SDS011;1032;52.542;13.440;2023-08-17T03:50:00;5.80;;;3.27;;
2053;SDS011;1032;52.542;13.440;2023-08-17T03:52:26;4.73;;;2.60;;
2053;SDS011;1032;52.542;13.440;2023-08-17T03:54:53;5.30;;;2.90;;
2053;SDS011;1032;52.542;13.440;2023-08-17T03:57:21;4.83;;;2.60;;
2053;SDS011;1032;52.542;13.440;2023-08-17T03:59:48;4.50;;;2.57;;
2053;SDS011;1032;52.542;13.440;2023-08-17T04:02:14;5.87;;;2.60;;
2053;SDS011;1032;52.542;13.440;2023-08-17T04:04:41;5.77;;;2.67;;
2053;SDS011;1032;52.542;13.440;2023-08-17T04:07:08;8.23;;;2.40;;
2053;SDS011;1032;52.542;13.440;2023-08-17T04:09:35;5.30;;;2.30;;
2053;SDS011;1032;52.542;13.440;2023-08-17T04:12:02;3.47;;;2.73;;
2053;SDS011;1032;52.542;13.440;2023-08-17T04:14:34;3.70;;;2.50;;
2053;SDS011;1032;52.542;13.440;2023-08-17T04:17:01;3.07;;;2.63;;
2053;SDS011;1032;52.542;13.440;2023-08-17T04:19:27;5.03;;;3.53;;
2053;SDS011;1032;52.542;13.440;2023-08-17T04:21:54;6.53;;;2.30;;
2053;SDS011;1032;52.542;13.440;2023-08-17T04:24:20;4.77;;;2.90;;
2053;SDS011;1032;52.542;13.440;2023-08-17T04:26:47;4.27;;;2.07;;
2053;SDS011;1032;52.542;13.440;2023-08-17T04:29:14;5.57;;;2.20;;
2053;SDS011;1032;52.542;13.440;2023-08-17T04:31:43;3.00;;;2.23;;
2053;SDS011;1032;52.542;13.440;2023-08-17T04:34:10;4.53;;;2.53;;
2053;SDS011;1032;52.542;13.440;2023-08-17T04:36:37;4.03;;;2.10;;
2053;SDS011;1032;52.542;13.440;2023-08-17T04:39:04;4.37;;;2.53;;
2053;SDS011;1032;52.542;13.440;2023-08-17T04:41:31;3.70;;;2.80;;
2053;SDS011;1032;52.542;13.440;2023-08-17T04:43:59;3.03;;;2.13;;
2053;SDS011;1032;52.542;13.440;2023-08-17T04:46:26;3.70;;;2.40;;
2053;SDS011;1032;52.542;13.440;2023-08-17T04:48:54;3.73;;;2.57;;
2053;SDS011;1032;52.542;13.440;2023-08-17T04:51:21;4.40;;;2.27;;
2053;SDS011;1032;52.542;13.440;2023-08-17T04:53:47;4.50;;;2.40;;
2053;SDS011;1032;52.542;13.440;2023-08-17T04:56:14;4.97;;;3.10;;
2053;SDS011;1032;52.542;13.440;2023-08-17T04:58:40;6.00;;;2.60;;
2053;SDS011;1032;52.542;13.440;2023-08-17T05:01:08;3.40;;;2.30;;
2053;SDS011;1032;52.542;13.440;2023-08-17T05:03:35;3.60;;;2.20;;
2053;SDS011;1032;52.542;13.440;2023-08-17T05:06:04;3.87;;;2.30;;
2053;SDS011;1032;52.542;13.440;2023-08-17T05:08:32;4.47;;;3.17;;
2053;SDS011;1032;52.542;13.440;2023-08-17T05:10:59;12.20;;;2.67;;
2053;SDS011;1032;52.542;13.440;2023-08-17T05:13:26;3.67;;;2.00;;
2053;SDS011;1032;52.542;13.440;2023-08-17T05:15:55;4.60;;;2.20;;
2053;SDS011;1032;52.542;13.440;2023-08-17T05:18:23;6.47;;;2.93;;
2053;SDS011;1032;52.542;13.440;2023-08-17T05:20:49;5.90;;;2.30;;
2053;SDS011;1032;52.542;13.440;2023-08-17T05:23:17;4.33;;;2.50;;
2053;SDS011;1032;52.542;13.440;2023-08-17T05:25:45;3.50;;;2.37;;
2053;SDS011;1032;52.542;13.440;2023-08-17T05:28:12;9.10;;;3.60;;
2053;SDS011;1032;52.542;13.440;2023-08-17T05:30:39;4.50;;;3.10;;
2053;SDS011;1032;52.542;13.440;2023-08-17T05:33:06;5.20;;;2.50;;
2053;SDS011;1032;52.542;13.440;2023-08-17T05:35:32;3.73;;;2.50;;
2053;SDS011;1032;52.542;13.440;2023-08-17T05:37:59;2.67;;;2.20;;
2053;SDS011;1032;52.542;13.440;2023-08-17T05:40:28;4.53;;;2.93;;
2053;SDS011;1032;52.542;13.440;2023-08-17T05:42:55;5.00;;;2.60;;
2053;SDS011;1032;52.542;13.440;2023-08-17T05:45:22;5.10;;;2.50;;
2053;SDS011;1032;52.542;13.440;2023-08-17T05:47:49;5.37;;;2.80;;
2053;SDS011;1032;52.542;13.440;2023-08-17T05:50:16;10.70;;;3.00;;
2053;SDS011;1032;52.542;13.440;2023-08-17T05:52:42;5.03;;;2.40;;
2053;SDS011;1032;52.542;13.440;2023-08-17T05:55:09;3.80;;;2.57;;
2053;SDS011;1032;52.542;13.440;2023-08-17T05:57:37;9.87;;;2.20;;
2053;SDS011;1032;52.542;13.440;2023-08-17T06:00:04;7.00;;;2.67;;
2053;SDS011;1032;52.542;13.440;2023-08-17T06:02:37;5.77;;;2.70;;
2053;SDS011;1032;52.542;13.440;2023-08-17T06:05:04;7.10;;;2.50;;
2053;SDS011;1032;52.542;13.440;2023-08-17T06:07:32;5.10;;;2.60;;
2053;SDS011;1032;52.542;13.440;2023-08-17T06:09:59;16.97;;;5.90;;
2053;SDS011;1032;52.542;13.440;2023-08-17T06:12:26;7.60;;;3.13;;
2053;SDS011;1032;52.542;13.440;2023-08-17T06:14:53;7.00;;;3.10;;
2053;SDS011;1032;52.542;13.440;2023-08-17T06:17:20;8.20;;;3.10;;
2053;SDS011;1032;52.542;13.440;2023-08-17T06:19:46;7.13;;;3.37;;
2053;SDS011;1032;52.542;13.440;2023-08-17T06:22:13;4.53;;;2.97;;
2053;SDS011;1032;52.542;13.440;2023-08-17T06:24:40;4.47;;;2.60;;
2053;SDS011;1032;52.542;13.440;2023-08-17T06:27:06;6.30;;;2.93;;
2053;SDS011;1032;52.542;13.440;2023-08-17T06:29:33;7.87;;;2.80;;
2053;SDS011;1032;52.542;13.440;2023-08-17T06:32:01;6.00;;;2.80;;
2053;SDS011;1032;52.542;13.440;2023-08-17T06:34:27;4.03;;;2.80;;
2053;SDS011;1032;52.542;13.440;2023-08-17T06:36:57;4.40;;;3.20;;
2053;SDS011;1032;52.542;13.440;2023-08-17T06:39:25;7.03;;;2.90;;
2053;SDS011;1032;52.542;13.440;2023-08-17T06:41:52;3.57;;;2.70;;
2053;SDS011;1032;52.542;13.440;2023-08-17T06:44:19;8.47;;;3.03;;
2053;SDS011;1032;52.542;13.440;2023-08-17T06:46:45;5.57;;;2.97;;
2053;SDS011;1032;52.542;13.440;2023-08-17T06:49:14;7.00;;;3.13;;
2053;SDS011;1032;52.542;13.440;2023-08-17T06:51:41;4.70;;;2.70;;
2053;SDS011;1032;52.542;13.440;2023-08-17T06:54:08;6.10;;;2.80;;
2053;SDS011;1032;52.542;13.440;2023-08-17T06:56:34;4.63;;;2.40;;
2053;SDS011;1032;52.542;13.440;2023-08-17T06:59:01;6.77;;;2.70;;
2053;SDS011;1032;52.542;13.440;2023-08-17T07:01:28;5.57;;;3.20;;
2053;SDS011;1032;52.542;13.440;2023-08-17T07:03:55;5.40;;;3.00;;
2053;SDS011;1032;52.542;13.440;2023-08-17T07:06:23;3.60;;;2.50;;
2053;SDS011;1032;52.542;13.440;2023-08-17T07:08:50;5.40;;;2.97;;
2053;SDS011;1032;52.542;13.440;2023-08-17T07:11:17;4.67;;;2.73;;
2053;SDS011;1032;52.542;13.440;2023-08-17T07:13:44;3.03;;;2.63;;
2053;SDS011;1032;52.542;13.440;2023-08-17T07:16:11;4.00;;;2.53;;
2053;SDS011;1032;52.542;13.440;2023-08-17T07:18:37;5.77;;;3.37;;
2053;SDS011;1032;52.542;13.440;2023-08-17T07:21:04;5.67;;;3.27;;
2053;SDS011;1032;52.542;13.440;2023-08-17T07:23:32;3.57;;;2.70;;
2053;SDS011;1032;52.542;13.440;2023-08-17T07:25:59;6.70;;;2.83;;
2053;SDS011;1032;52.542;13.440;2023-08-17T07:28:25;5.33;;;3.00;;
2053;SDS011;1032;52.542;13.440;2023-08-17T07:30:52;4.90;;;2.60;;
2053;SDS011;1032;52.542;13.440;2023-08-17T07:33:19;4.20;;;2.57;;
2053;SDS011;1032;52.542;13.440;2023-08-17T07:35:45;5.50;;;3.40;;
2053;SDS011;1032;52.542;13.440;2023-08-17T07:38:12;4.57;;;2.80;;
2053;SDS011;1032;52.542;13.440;2023-08-17T07:40:40;8.17;;;3.07;;
2053;SDS011;1032;52.542;13.440;2023-08-17T07:43:08;6.33;;;3.17;;
2053;SDS011;1032;52.542;13.440;2023-08-17T07:45:34;4.47;;;2.90;;
2053;SDS011;1032;52.542;13.440;2023-08-17T07:48:01;6.67;;;2.87;;
2053;SDS011;1032;52.542;13.440;2023-08-17T07:50:28;4.20;;;2.70;;
2053;SDS011;1032;52.542;13.440;2023-08-17T07:52:54;4.10;;;3.00;;
2053;SDS011;1032;52.542;13.440;2023-08-17T07:55:21;5.90;;;2.83;;
2053;SDS011;1032;52.542;13.440;2023-08-17T07:57:49;3.47;;;2.53;;
2053;SDS011;1032;52.542;13.440;2023-08-17T08:00:16;3.27;;;2.70;;
2053;SDS011;1032;52.542;13.440;2023-08-17T08:02:43;4.90;;;2.93;;
2053;SDS011;1032;52.542;13.440;2023-08-17T08:05:10;9.00;;;3.07;;
2053;SDS011;1032;52.542;13.440;2023-08-17T08:07:38;10.17;;;2.90;;
2053;SDS011;1032;52.542;13.440;2023-08-17T08:10:05;9.30;;;3.43;;
2053;SDS011;1032;52.542;13.440;2023-08-17T08:12:32;5.73;;;3.07;;
2053;SDS011;1032;52.542;13.440;2023-08-17T08:15:00;4.10;;;2.80;;
2053;SDS011;1032;52.542;13.440;2023-08-17T08:17:27;6.07;;;2.50;;
2053;SDS011;1032;52.542;13.440;2023-08-17T08:19:53;6.33;;;3.30;;
2053;SDS011;1032;52.542;13.440;2023-08-17T08:22:20;4.80;;;2.83;;
2053;SDS011;1032;52.542;13.440;2023-08-17T08:24:46;6.37;;;3.00;;
2053;SDS011;1032;52.542;13.440;2023-08-17T08:27:13;5.67;;;2.97;;
2053;SDS011;1032;52.542;13.440;2023-08-17T08:29:40;5.30;;;2.70;;
2053;SDS011;1032;52.542;13.440;2023-08-17T08:32:08;8.37;;;3.07;;
2053;SDS011;1032;52.542;13.440;2023-08-17T08:34:34;6.40;;;3.57;;
2053;SDS011;1032;52.542;13.440;2023-08-17T08:37:01;3.80;;;3.30;;
2053;SDS011;1032;52.542;13.440;2023-08-17T08:39:27;6.50;;;2.80;;
2053;SDS011;1032;52.542;13.440;2023-08-17T08:41:54;5.07;;;3.33;;
2053;SDS011;1032;52.542;13.440;2023-08-17T08:44:21;8.00;;;4.07;;
2053;SDS011;1032;52.542;13.440;2023-08-17T08:46:48;6.33;;;3.43;;
2053;SDS011;1032;52.542;13.440;2023-08-17T08:49:17;11.00;;;3.27;;
2053;SDS011;1032;52.542;13.440;2023-08-17T08:51:49;5.70;;;3.77;;
2053;SDS011;1032;52.542;13.440;2023-08-17T08:54:18;4.10;;;3.40;;
2053;SDS011;1032;52.542;13.440;2023-08-17T08:56:48;3.70;;;3.30;;
2053;SDS011;1032;52.542;13.440;2023-08-17T08:59:20;7.40;;;3.40;;
2053;SDS011;1032;52.542;13.440;2023-08-17T09:01:49;5.53;;;3.30;;
2053;SDS011;1032;52.542;13.440;2023-08-17T09:04:17;3.70;;;3.10;;
2053;SDS011;1032;52.542;13.440;2023-08-17T09:06:44;6.20;;;3.57;;
2053;SDS011;1032;52.542;13.440;2023-08-17T09:09:12;4.73;;;3.57;;
2053;SDS011;1032;52.542;13.440;2023-08-17T09:11:41;4.83;;;3.43;;
2053;SDS011;1032;52.542;13.440;2023-08-17T09:14:08;3.90;;;3.53;;
2053;SDS011;1032;52.542;13.440;2023-08-17T09:16:35;7.03;;;3.30;;
2053;SDS011;1032;52.542;13.440;2023-08-17T09:19:01;3.63;;;3.33;;
2053;SDS011;1032;52.542;13.440;2023-08-17T09:21:32;5.80;;;3.90;;
2053;SDS011;1032;52.542;13.440;2023-08-17T09:23:59;6.23;;;3.70;;
2053;SDS011;1032;52.542;13.440;2023-08-17T09:26:25;7.13;;;3.50;;
2053;SDS011;1032;52.542;13.440;2023-08-17T09:28:56;5.10;;;3.90;;
2053;SDS011;1032;52.542;13.440;2023-08-17T09:31:24;7.20;;;4.13;;
2053;SDS011;1032;52.542;13.440;2023-08-17T09:33:51;5.03;;;4.53;;
2053;SDS011;1032;52.542;13.440;2023-08-17T09:36:19;6.50;;;3.73;;
2053;SDS011;1032;52.542;13.440;2023-08-17T09:38:49;5.77;;;3.80;;
2053;SDS011;1032;52.542;13.440;2023-08-17T09:41:17;6.33;;;4.20;;
2053;SDS011;1032;52.542;13.440;2023-08-17T09:43:44;5.60;;;3.87;;
2053;SDS011;1032;52.542;13.440;2023-08-17T09:46:11;11.13;;;4.10;;
2053;SDS011;1032;52.542;13.440;2023-08-17T09:48:38;4.90;;;3.57;;
2053;SDS011;1032;52.542;13.440;2023-08-17T09:51:05;3.63;;;3.30;;
2053;SDS011;1032;52.542;13.440;2023-08-17T09:53:34;6.10;;;3.93;;
2053;SDS011;1032;52.542;13.440;2023-08-17T09:56:03;5.37;;;3.90;;
2053;SDS011;1032;52.542;13.440;2023-08-17T09:58:32;6.60;;;3.50;;
2053;SDS011;1032;52.542;13.440;2023-08-17T10:00:59;4.60;;;3.57;;
2053;SDS011;1032;52.542;13.440;2023-08-17T10:03:30;5.80;;;3.70;;
2053;SDS011;1032;52.542;13.440;2023-08-17T10:05:59;4.90;;;3.23;;
2053;SDS011;1032;52.542;13.440;2023-08-17T10:08:30;6.70;;;3.30;;
2053;SDS011;1032;52.542;13.440;2023-08-17T10:10:59;7.50;;;3.50;;
2053;SDS011;1032;52.542;13.440;2023-08-17T10:13:30;4.97;;;3.33;;
2053;SDS011;1032;52.542;13.440;2023-08-17T10:16:02;5.60;;;3.60;;
2053;SDS011;1032;52.542;13.440;2023-08-17T10:18:31;4.63;;;3.63;;
2053;SDS011;1032;52.542;13.440;2023-08-17T10:21:06;3.40;;;3.07;;
2053;SDS011;1032;52.542;13.440;2023-08-17T10:23:39;4.60;;;4.07;;
2053;SDS011;1032;52.542;13.440;2023-08-17T10:26:06;7.60;;;3.87;;
2053;SDS011;1032;52.542;13.440;2023-08-17T10:28:35;8.20;;;3.90;;
2053;SDS011;1032;52.542;13.440;2023-08-17T10:31:02;4.53;;;3.60;;
2053;SDS011;1032;52.542;13.440;2023-08-17T10:33:28;6.63;;;4.17;;
2053;SDS011;1032;52.542;13.440;2023-08-17T10:35:56;4.90;;;4.10;;
2053;SDS011;1032;52.542;13.440;2023-08-17T10:38:23;5.10;;;4.20;;
2053;SDS011;1032;52.542;13.440;2023-08-17T10:41:07;4.80;;;4.30;;
2053;SDS011;1032;52.542;13.440;2023-08-17T10:43:45;4.40;;;4.00;;
2053;SDS011;1032;52.542;13.440;2023-08-17T10:46:19;5.23;;;4.40;;
2053;SDS011;1032;52.542;13.440;2023-08-17T10:48:46;6.73;;;3.70;;
2053;SDS011;1032;52.542;13.440;2023-08-17T10:51:13;4.10;;;3.67;;
2053;SDS011;1032;52.542;13.440;2023-08-17T10:53:42;6.37;;;3.80;;
2053;SDS011;1032;52.542;13.440;2023-08-17T10:56:13;4.03;;;3.57;;
2053;SDS011;1032;52.542;13.440;2023-08-17T10:58:41;5.90;;;3.77;;
2053;SDS011;1032;52.542;13.440;2023-08-17T11:01:10;3.80;;;3.50;;
2053;SDS011;1032;52.542;13.440;2023-08-17T11:03:39;8.20;;;3.80;;
2053;SDS011;1032;52.542;13.440;2023-08-17T11:06:13;6.37;;;4.50;;
2053;SDS011;1032;52.542;13.440;2023-08-17T11:08:50;4.80;;;4.23;;
2053;SDS011;1032;52.542;13.440;2023-08-17T11:11:19;7.97;;;4.13;;
2053;SDS011;1032;52.542;13.440;2023-08-17T11:13:46;4.87;;;4.20;;
2053;SDS011;1032;52.542;13.440;2023-08-17T11:16:16;6.47;;;4.70;;
2053;SDS011;1032;52.542;13.440;2023-08-17T11:18:44;8.03;;;4.40;;
2053;SDS011;1032;52.542;13.440;2023-08-17T11:21:11;6.57;;;4.30;;
2053;SDS011;1032;52.542;13.440;2023-08-17T11:23:39;7.83;;;5.40;;
2053;SDS011;1032;52.542;13.440;2023-08-17T11:26:06;4.87;;;4.37;;
2053;SDS011;1032;52.542;13.440;2023-08-17T11:28:34;5.77;;;4.37;;
2053;SDS011;1032;52.542;13.440;2023-08-17T11:31:03;6.20;;;5.27;;
2053;SDS011;1032;52.542;13.440;2023-08-17T11:33:33;8.73;;;4.93;;
2053;SDS011;1032;52.542;13.440;2023-08-17T11:36:01;5.43;;;4.40;;
2053;SDS011;1032;52.542;13.440;2023-08-17T11:38:30;7.03;;;4.30;;
2053;SDS011;1032;52.542;13.440;2023-08-17T11:40:57;8.03;;;4.80;;
2053;SDS011;1032;52.542;13.440;2023-08-17T11:43:24;5.37;;;4.40;;
2053;SDS011;1032;52.542;13.440;2023-08-17T11:45:52;8.23;;;5.03;;
2053;SDS011;1032;52.542;13.440;2023-08-17T11:48:20;6.27;;;4.60;;
2053;SDS011;1032;52.542;13.440;2023-08-17T11:50:48;8.10;;;5.00;;
2053;SDS011;1032;52.542;13.440;2023-08-17T11:53:15;6.43;;;5.47;;
2053;SDS011;1032;52.542;13.440;2023-08-17T11:55:42;6.23;;;5.00;;
2053;SDS011;1032;52.542;13.440;2023-08-17T11:58:09;5.53;;;5.03;;
2053;SDS011;1032;52.542;13.440;2023-08-17T12:00:36;4.90;;;4.00;;
2053;SDS011;1032;52.542;13.440;2023-08-17T12:03:06;8.13;;;5.27;;
2053;SDS011;1032;52.542;13.440;2023-08-17T12:05:32;4.67;;;4.27;;
2053;SDS011;1032;52.542;13.440;2023-08-17T12:08:00;5.10;;;4.70;;
2053;SDS011;1032;52.542;13.440;2023-08-17T12:10:27;5.07;;;4.40;;
2053;SDS011;1032;52.542;13.440;2023-08-17T12:12:57;5.80;;;5.20;;
2053;SDS011;1032;52.542;13.440;2023-08-17T12:15:24;6.20;;;4.87;;
2053;SDS011;1032;52.542;13.440;2023-08-17T12:17:58;5.70;;;5.00;;
2053;SDS011;1032;52.542;13.440;2023-08-17T12:20:25;7.20;;;5.37;;
2053;SDS011;1032;52.542;13.440;2023-08-17T12:22:52;8.23;;;5.00;;
2053;SDS011;1032;52.542;13.440;2023-08-17T12:25:21;9.60;;;5.47;;
2053;SDS011;1032;52.542;13.440;2023-08-17T12:27:48;5.20;;;4.80;;
2053;SDS011;1032;52.542;13.440;2023-08-17T12:30:23;7.53;;;5.03;;
2053;SDS011;1032;52.542;13.440;2023-08-17T12:32:52;5.60;;;5.10;;
2053;SDS011;1032;52.542;13.440;2023-08-17T12:35:18;6.37;;;5.23;;
2053;SDS011;1032;52.542;13.440;2023-08-17T12:37:46;5.53;;;5.00;;
2053;SDS011;1032;52.542;13.440;2023-08-17T12:40:13;6.50;;;5.43;;
2053;SDS011;1032;52.542;13.440;2023-08-17T12:42:41;5.50;;;5.00;;
2053;SDS011;1032;52.542;13.440;2023-08-17T12:45:08;5.57;;;4.77;;
2053;SDS011;1032;52.542;13.440;2023-08-17T12:47:35;5.83;;;5.30;;
2053;SDS011;1032;52.542;13.440;2023-08-17T12:50:02;5.57;;;5.10;;
2053;SDS011;1032;52.542;13.440;2023-08-17T12:52:29;5.50;;;5.10;;
2053;SDS011;1032;52.542;13.440;2023-08-17T12:54:56;6.17;;;5.57;;
2053;SDS011;1032;52.542;13.440;2023-08-17T12:57:22;5.80;;;5.30;;
2053;SDS011;1032;52.542;13.440;2023-08-17T12:59:50;5.50;;;5.10;;
2053;SDS011;1032;52.542;13.440;2023-08-17T13:02:17;5.80;;;5.40;;
2053;SDS011;1032;52.542;13.440;2023-08-17T13:04:45;5.13;;;4.73;;
2053;SDS011;1032;52.542;13.440;2023-08-17T13:07:12;5.70;;;4.33;;
2053;SDS011;1032;52.542;13.440;2023-08-17T13:09:40;5.10;;;4.70;;
2053;SDS011;1032;52.542;13.440;2023-08-17T13:12:07;5.37;;;4.93;;
2053;SDS011;1032;52.542;13.440;2023-08-17T13:14:34;5.67;;;4.73;;
2053;SDS011;1032;52.542;13.440;2023-08-17T13:17:02;5.70;;;4.90;;
2053;SDS011;1032;52.542;13.440;2023-08-17T13:19:28;5.50;;;5.10;;
2053;SDS011;1032;52.542;13.440;2023-08-17T13:21:55;5.60;;;5.07;;
2053;SDS011;1032;52.542;13.440;2023-08-17T13:24:21;6.97;;;4.83;;
2053;SDS011;1032;52.542;13.440;2023-08-17T13:26:48;6.37;;;5.77;;
2053;SDS011;1032;52.542;13.440;2023-08-17T13:29:17;7.13;;;5.30;;
2053;SDS011;1032;52.542;13.440;2023-08-17T13:31:46;6.00;;;5.30;;
2053;SDS011;1032;52.542;13.440;2023-08-17T13:34:14;5.40;;;5.00;;
2053;SDS011;1032;52.542;13.440;2023-08-17T13:36:40;5.60;;;5.10;;
2053;SDS011;1032;52.542;13.440;2023-08-17T13:39:07;5.50;;;4.90;;
2053;SDS011;1032;52.542;13.440;2023-08-17T13:41:34;7.60;;;5.30;;
2053;SDS011;1032;52.542;13.440;2023-08-17T13:44:00;5.63;;;5.00;;
2053;SDS011;1032;52.542;13.440;2023-08-17T13:46:27;6.00;;;5.50;;
2053;SDS011;1032;52.542;13.440;2023-08-17T13:48:54;8.17;;;5.50;;
2053;SDS011;1032;52.542;13.440;2023-08-17T13:51:22;5.83;;;5.33;;
2053;SDS011;1032;52.542;13.440;2023-08-17T13:53:48;6.37;;;5.67;;
2053;SDS011;1032;52.542;13.440;2023-08-17T13:56:15;5.23;;;4.80;;
2053;SDS011;1032;52.542;13.440;2023-08-17T13:58:42;5.53;;;4.53;;
2053;SDS011;1032;52.542;13.440;2023-08-17T14:01:09;5.53;;;5.00;;
2053;SDS011;1032;52.542;13.440;2023-08-17T14:03:36;5.47;;;4.97;;
2053;SDS011;1032;52.542;13.440;2023-08-17T14:06:03;8.43;;;5.60;;
2053;SDS011;1032;52.542;13.440;2023-08-17T14:08:31;6.37;;;4.90;;
2053;SDS011;1032;52.542;13.440;2023-08-17T14:10:57;5.60;;;5.10;;
2053;SDS011;1032;52.542;13.440;2023-08-17T14:13:25;5.60;;;5.03;;
2053;SDS011;1032;52.542;13.440;2023-08-17T14:15:52;5.33;;;4.83;;
2053;SDS011;1032;52.542;13.440;2023-08-17T14:18:21;5.00;;;4.50;;
2053;SDS011;1032;52.542;13.440;2023-08-17T14:20:47;5.37;;;4.83;;
2053;SDS011;1032;52.542;13.440;2023-08-17T14:23:14;4.87;;;4.40;;
2053;SDS011;1032;52.542;13.440;2023-08-17T14:25:42;4.80;;;4.40;;
2053;SDS011;1032;52.542;13.440;2023-08-17T14:28:08;4.97;;;4.47;;
2053;SDS011;1032;52.542;13.440;2023-08-17T14:30:35;6.17;;;5.40;;
2053;SDS011;1032;52.542;13.440;2023-08-17T14:33:02;7.10;;;4.70;;
2053;SDS011;1032;52.542;13.440;2023-08-17T14:35:29;5.70;;;5.17;;
2053;SDS011;1032;52.542;13.440;2023-08-17T14:37:55;6.90;;;5.00;;
2053;SDS011;1032;52.542;13.440;2023-08-17T14:40:22;5.30;;;4.40;;
2053;SDS011;1032;52.542;13.440;2023-08-17T14:42:50;5.20;;;4.70;;
2053;SDS011;1032;52.542;13.440;2023-08-17T14:45:17;5.03;;;4.63;;
2053;SDS011;1032;52.542;13.440;2023-08-17T14:47:44;4.80;;;4.40;;
2053;SDS011;1032;52.542;13.440;2023-08-17T14:50:10;7.73;;;4.80;;
2053;SDS011;1032;52.542;13.440;2023-08-17T14:52:39;6.00;;;4.83;;
2053;SDS011;1032;52.542;13.440;2023-08-17T14:55:05;4.87;;;4.37;;
2053;SDS011;1032;52.542;13.440;2023-08-17T14:57:33;4.87;;;4.40;;
2053;SDS011;1032;52.542;13.440;2023-08-17T15:00:02;6.80;;;4.97;;
2053;SDS011;1032;52.542;13.440;2023-08-17T15:02:29;5.60;;;5.20;;